Time;durP1;ratioP1;P1;durP2;ratioP2;P2;SDS_P1;SDS_P2;PMS_P1;PMS_P2;Temp;Humidity;BMP_temperature;BMP_pressure;BME280_temperature;BME280_humidity;BME280_pressure;Samples;Min_cycle;Max_cycle;Signal;HPM_P1;HPM_P2
2023/04/29 00:00:11;;;;;;;10.90;9.30;;;;;;;;;;5024444;28;20041;-64
2023/04/29 00:02:37;;;;;;;11.85;9.20;;;;;;;;;;5043175;28;20043;-64
2023/04/29 00:05:04;;;;;;;11.80;8.88;;;;;;;;;;5042277;28;20041;-64
2023/04/29 00:07:35;;;;;;;11.18;8.77;;;;;;;;;;5042166;28;20110;-64
2023/04/29 00:10:01;;;;;;;10.38;8.13;;;;;;;;;;5042160;28;20075;-64
2023/04/29 00:12:29;;;;;;;7.97;7.18;;;;;;;;;;5042707;28;20048;-64
2023/04/29 00:14:55;;;;;;;7.03;6.00;;;;;;;;;;5023766;28;20063;-64
2023/04/29 00:17:21;;;;;;;5.97;5.38;;;;;;;;;;5042712;28;20117;-65
2023/04/29 00:19:47;;;;;;;6.28;5.68;;;;;;;;;;5042625;28;20068;-64
2023/04/29 00:22:13;;;;;;;11.85;8.77;;;;;;;;;;5024341;28;20100;-64
2023/04/29 00:24:39;;;;;;;10.25;8.15;;;;;;;;;;5024424;28;20367;-64
2023/04/29 00:27:05;;;;;;;7.65;6.85;;;;;;;;;;5024568;28;20049;-64
2023/04/29 00:29:31;;;;;;;8.20;7.22;;;;;;;;;;5042003;28;20032;-64
2023/04/29 00:31:58;;;;;;;7.07;6.45;;;;;;;;;;5042041;28;20048;-64
2023/04/29 00:34:24;;;;;;;6.47;5.88;;;;;;;;;;5042764;28;20111;-65
2023/04/29 00:36:50;;;;;;;7.28;5.78;;;;;;;;;;5041716;28;20211;-64
2023/04/29 00:39:16;;;;;;;9.95;6.53;;;;;;;;;;5025398;28;20491;-64
2023/04/29 00:41:42;;;;;;;5.30;4.90;;;;;;;;;;5044038;28;20083;-64
2023/04/29 00:44:09;;;;;;;5.68;4.85;;;;;;;;;;5045290;28;20120;-64
2023/04/29 00:46:35;;;;;;;4.75;4.07;;;;;;;;;;5028094;28;20625;-65
2023/04/29 00:49:01;;;;;;;7.68;5.82;;;;;;;;;;5045404;28;20733;-64
2023/04/29 00:51:28;;;;;;;6.43;4.95;;;;;;;;;;5028385;28;20106;-65
2023/04/29 00:53:54;;;;;;;4.72;3.80;;;;;;;;;;5045819;28;20458;-65
2023/04/29 00:56:20;;;;;;;4.85;4.40;;;;;;;;;;5045445;28;20495;-64
2023/04/29 00:58:51;;;;;;;5.57;4.32;;;;;;;;;;5046167;28;20491;-64
2023/04/29 01:01:18;;;;;;;4.07;3.67;;;;;;;;;;5046559;28;20040;-64
2023/04/29 01:03:44;;;;;;;3.22;2.92;;;;;;;;;;5043790;28;20426;-64
2023/04/29 01:06:10;;;;;;;5.13;3.50;;;;;;;;;;5046120;28;20045;-64
2023/04/29 01:08:55;;;;;;;6.63;5.05;;;;;;;;;;5043603;28;20087;-64
2023/04/29 01:11:22;;;;;;;5.88;5.22;;;;;;;;;;5045132;28;20095;-64
2023/04/29 01:13:59;;;;;;;7.28;5.80;;;;;;;;;;5026856;28;20056;-64
2023/04/29 01:16:30;;;;;;;6.57;5.35;;;;;;;;;;5045284;28;20049;-64
2023/04/29 01:19:02;;;;;;;8.07;5.53;;;;;;;;;;5044404;28;20048;-64
2023/04/29 01:21:30;;;;;;;9.45;6.88;;;;;;;;;;5027632;28;20395;-64
2023/04/29 01:23:57;;;;;;;9.77;6.43;;;;;;;;;;5027301;28;20041;-64
2023/04/29 01:26:23;;;;;;;5.90;5.13;;;;;;;;;;5027323;28;20110;-64
2023/04/29 01:28:52;;;;;;;4.72;3.83;;;;;;;;;;5027633;28;20047;-64
2023/04/29 01:31:21;;;;;;;4.70;4.30;;;;;;;;;;5027582;28;20052;-64
2023/04/29 01:34:06;;;;;;;5.95;5.40;;;;;;;;;;5044791;28;20048;-64
2023/04/29 01:36:41;;;;;;;5.30;4.80;;;;;;;;;;5045482;28;20064;-64
2023/04/29 01:39:25;;;;;;;4.15;3.75;;;;;;;;;;5030737;28;20060;-64
2023/04/29 01:42:04;;;;;;;5.22;4.70;;;;;;;;;;5028655;28;20606;-64
2023/04/29 01:44:32;;;;;;;7.25;5.78;;;;;;;;;;5045315;28;20499;-65
2023/04/29 01:46:58;;;;;;;4.88;4.38;;;;;;;;;;5026203;28;20053;-64
2023/04/29 01:49:27;;;;;;;5.28;3.80;;;;;;;;;;5045224;28;20041;-64
2023/04/29 01:51:53;;;;;;;3.78;3.47;;;;;;;;;;5044023;28;20056;-64
2023/04/29 01:54:21;;;;;;;3.20;2.90;;;;;;;;;;5026543;28;20049;-64
2023/04/29 01:56:47;;;;;;;2.45;2.25;;;;;;;;;;5027087;28;20564;-64
2023/04/29 01:59:13;;;;;;;3.05;2.78;;;;;;;;;;5044565;28;20072;-64
2023/04/29 02:01:39;;;;;;;2.88;2.25;;;;;;;;;;5026718;28;20047;-64
2023/04/29 02:04:05;;;;;;;2.17;1.98;;;;;;;;;;5027267;28;20057;-64
2023/04/29 02:06:32;;;;;;;2.30;2.10;;;;;;;;;;5026367;28;20110;-64
2023/04/29 02:08:58;;;;;;;2.25;2.05;;;;;;;;;;5026644;28;20048;-64
2023/04/29 02:11:24;;;;;;;2.15;1.95;;;;;;;;;;5026924;28;20483;-64
2023/04/29 02:13:50;;;;;;;2.15;1.95;;;;;;;;;;5025578;28;20060;-64
2023/04/29 02:16:16;;;;;;;2.10;1.90;;;;;;;;;;5025490;28;20098;-64
2023/04/29 02:18:42;;;;;;;1.75;1.65;;;;;;;;;;5030240;28;20836;-64
2023/04/29 02:21:08;;;;;;;1.92;1.83;;;;;;;;;;5026838;28;20076;-65
2023/04/29 02:23:35;;;;;;;1.75;1.58;;;;;;;;;;5027074;28;20070;-64
2023/04/29 02:26:02;;;;;;;1.98;1.67;;;;;;;;;;5043976;28;20490;-64
2023/04/29 02:28:28;;;;;;;1.77;1.67;;;;;;;;;;5044218;28;20037;-64
2023/04/29 02:30:54;;;;;;;1.63;1.52;;;;;;;;;;5025988;28;20705;-64
2023/04/29 02:33:20;;;;;;;2.70;1.45;;;;;;;;;;5044085;28;20441;-64
2023/04/29 02:35:46;;;;;;;1.67;1.55;;;;;;;;;;5025728;28;20051;-64
2023/04/29 02:38:12;;;;;;;1.85;1.60;;;;;;;;;;5044400;28;20114;-64
2023/04/29 02:40:45;;;;;;;2.40;1.80;;;;;;;;;;5044458;28;20044;-64
2023/04/29 02:43:11;;;;;;;2.17;1.98;;;;;;;;;;5025281;28;20072;-64
2023/04/29 02:45:37;;;;;;;2.17;1.98;;;;;;;;;;5044084;28;20053;-64
2023/04/29 02:48:04;;;;;;;2.10;1.92;;;;;;;;;;5043617;28;20433;-64
2023/04/29 02:50:30;;;;;;;3.80;2.90;;;;;;;;;;5024537;28;20110;-64
2023/04/29 02:52:56;;;;;;;2.30;2.10;;;;;;;;;;5025664;28;20052;-64
2023/04/29 02:55:22;;;;;;;3.15;2.05;;;;;;;;;;5026445;28;20045;-64
2023/04/29 02:57:48;;;;;;;3.65;1.90;;;;;;;;;;5043195;28;20059;-64
2023/04/29 03:00:14;;;;;;;3.38;2.30;;;;;;;;;;5025942;28;20041;-64
2023/04/29 03:02:40;;;;;;;2.47;2.17;;;;;;;;;;5042462;28;20088;-64
2023/04/29 03:05:06;;;;;;;2.58;2.17;;;;;;;;;;5043482;28;20044;-64
2023/04/29 03:07:33;;;;;;;2.58;1.92;;;;;;;;;;5044090;28;20127;-64
2023/04/29 03:09:59;;;;;;;2.80;2.60;;;;;;;;;;5042593;28;20051;-64
2023/04/29 03:12:25;;;;;;;3.25;2.83;;;;;;;;;;5042750;28;20480;-64
2023/04/29 03:14:51;;;;;;;3.78;3.42;;;;;;;;;;5025181;28;20044;-64
2023/04/29 03:17:17;;;;;;;3.33;2.80;;;;;;;;;;5025414;28;20072;-64
2023/04/29 03:19:43;;;;;;;2.25;2.05;;;;;;;;;;5043397;28;20538;-64
2023/04/29 03:22:10;;;;;;;2.95;1.70;;;;;;;;;;5024917;28;20072;-64
2023/04/29 03:24:37;;;;;;;5.60;3.00;;;;;;;;;;5025220;28;20052;-64
2023/04/29 03:27:03;;;;;;;3.85;2.88;;;;;;;;;;5042921;28;20044;-64
2023/04/29 03:29:30;;;;;;;2.22;1.73;;;;;;;;;;5025788;28;20041;-64
2023/04/29 03:31:56;;;;;;;2.20;1.85;;;;;;;;;;5024045;28;20465;-64
2023/04/29 03:34:23;;;;;;;4.38;3.97;;;;;;;;;;5024785;28;20080;-64
2023/04/29 03:36:50;;;;;;;5.32;3.65;;;;;;;;;;5025228;28;20037;-64
2023/04/29 03:39:16;;;;;;;3.28;2.95;;;;;;;;;;5043075;28;20095;-64
2023/04/29 03:41:42;;;;;;;3.20;2.60;;;;;;;;;;5042847;28;20475;-64
2023/04/29 03:44:08;;;;;;;3.10;2.80;;;;;;;;;;5025391;28;20164;-64
2023/04/29 03:46:34;;;;;;;3.60;3.30;;;;;;;;;;5042363;28;20120;-64
2023/04/29 03:49:01;;;;;;;3.80;3.00;;;;;;;;;;5024622;28;20052;-64
2023/04/29 03:51:27;;;;;;;2.53;2.33;;;;;;;;;;5043450;28;20041;-64
2023/04/29 03:53:57;;;;;;;3.30;2.70;;;;;;;;;;5041310;28;20045;-64
2023/04/29 03:56:24;;;;;;;3.10;2.80;;;;;;;;;;5043246;28;20037;-64
2023/04/29 03:58:50;;;;;;;2.60;2.25;;;;;;;;;;5024714;28;20057;-64
2023/04/29 04:01:17;;;;;;;3.42;3.13;;;;;;;;;;5043318;28;20495;-64
2023/04/29 04:03:43;;;;;;;8.13;4.97;;;;;;;;;;5024882;28;20051;-64
2023/04/29 04:06:09;;;;;;;5.40;4.13;;;;;;;;;;5024039;28;20049;-64
2023/04/29 04:08:35;;;;;;;5.85;5.13;;;;;;;;;;5043141;28;20533;-65
2023/04/29 04:11:04;;;;;;;5.35;4.25;;;;;;;;;;5041641;28;20048;-64
2023/04/29 04:13:30;;;;;;;8.25;4.97;;;;;;;;;;5023869;28;20053;-64
2023/04/29 04:15:56;;;;;;;6.72;4.90;;;;;;;;;;5031142;28;20113;-64
2023/04/29 04:18:22;;;;;;;4.70;3.85;;;;;;;;;;5049442;28;20040;-64
2023/04/29 04:20:48;;;;;;;7.38;4.85;;;;;;;;;;5030668;28;20049;-64
2023/04/29 04:23:14;;;;;;;5.15;3.78;;;;;;;;;;5049718;28;20060;-64
2023/04/29 04:25:47;;;;;;;4.15;3.33;;;;;;;;;;5049299;28;20045;-64
2023/04/29 04:28:13;;;;;;;2.95;2.65;;;;;;;;;;5048458;28;20053;-64
2023/04/29 04:30:39;;;;;;;3.10;2.50;;;;;;;;;;5049521;28;20033;-64
2023/04/29 04:33:05;;;;;;;2.28;2.08;;;;;;;;;;5049107;28;20048;-64
2023/04/29 04:35:31;;;;;;;1.98;1.55;;;;;;;;;;5048502;28;20530;-64
2023/04/29 04:37:58;;;;;;;1.90;1.55;;;;;;;;;;5030915;28;20477;-64
2023/04/29 04:40:24;;;;;;;1.50;1.30;;;;;;;;;;5031035;28;20052;-64
2023/04/29 04:42:50;;;;;;;2.33;1.75;;;;;;;;;;5048350;28;20041;-64
2023/04/29 04:45:16;;;;;;;2.13;1.30;;;;;;;;;;5031648;28;20049;-64
2023/04/29 04:47:42;;;;;;;1.40;1.30;;;;;;;;;;5029572;28;20094;-64
2023/04/29 04:50:08;;;;;;;1.95;1.50;;;;;;;;;;5029991;28;20049;-64
2023/04/29 04:52:34;;;;;;;2.35;1.40;;;;;;;;;;5030992;28;20047;-64
2023/04/29 04:55:00;;;;;;;1.58;1.48;;;;;;;;;;5048733;28;20044;-64
2023/04/29 04:57:26;;;;;;;1.50;1.40;;;;;;;;;;5029966;28;20179;-64
2023/04/29 04:59:53;;;;;;;1.20;1.10;;;;;;;;;;5029405;28;20052;-64
2023/04/29 05:02:19;;;;;;;1.23;1.13;;;;;;;;;;5030566;28;20488;-65
2023/04/29 05:04:45;;;;;;;1.08;1.02;;;;;;;;;;5048621;28;20049;-64
2023/04/29 05:07:11;;;;;;;2.38;2.03;;;;;;;;;;5030993;28;20583;-64
2023/04/29 05:09:37;;;;;;;1.90;1.75;;;;;;;;;;5048305;28;20044;-64
2023/04/29 05:12:03;;;;;;;2.88;2.15;;;;;;;;;;5030169;28;20132;-64
2023/04/29 05:14:29;;;;;;;1.85;1.63;;;;;;;;;;5031414;28;20315;-64
2023/04/29 05:16:59;;;;;;;2.38;1.95;;;;;;;;;;5028847;28;20051;-64
2023/04/29 05:19:25;;;;;;;1.85;1.65;;;;;;;;;;5047744;28;20072;-64
2023/04/29 05:21:51;;;;;;;1.73;1.40;;;;;;;;;;5048167;28;20044;-64
2023/04/29 05:24:17;;;;;;;2.78;2.50;;;;;;;;;;5031605;28;20056;-64
2023/04/29 05:26:43;;;;;;;3.15;2.85;;;;;;;;;;5045158;28;20052;-64
2023/04/29 05:29:10;;;;;;;2.92;2.63;;;;;;;;;;5045772;28;20052;-64
2023/04/29 05:31:37;;;;;;;2.17;1.90;;;;;;;;;;5026769;28;20518;-64
2023/04/29 05:34:03;;;;;;;1.90;1.70;;;;;;;;;;5044987;28;20049;-64
2023/04/29 05:36:29;;;;;;;1.70;1.05;;;;;;;;;;5027575;28;20125;-64
2023/04/29 05:38:56;;;;;;;3.35;1.92;;;;;;;;;;5044398;28;21714;-64
2023/04/29 05:41:23;;;;;;;1.85;1.75;;;;;;;;;;5027716;28;20043;-64
2023/04/29 05:43:49;;;;;;;3.38;1.83;;;;;;;;;;5027425;28;20041;-64
2023/04/29 05:46:15;;;;;;;2.60;2.08;;;;;;;;;;5045224;28;20059;-64
2023/04/29 05:48:42;;;;;;;1.20;1.10;;;;;;;;;;5027071;28;20053;-64
2023/04/29 05:51:08;;;;;;;1.83;1.25;;;;;;;;;;5027011;28;20045;-64
2023/04/29 05:53:35;;;;;;;4.13;2.63;;;;;;;;;;5026859;28;20041;-64
2023/04/29 05:56:05;;;;;;;2.97;2.15;;;;;;;;;;5045493;28;20102;-64
2023/04/29 05:58:31;;;;;;;2.45;1.88;;;;;;;;;;5042697;28;20072;-64
2023/04/29 06:00:57;;;;;;;1.75;1.50;;;;;;;;;;5044428;28;20037;-64
2023/04/29 06:03:23;;;;;;;1.95;1.85;;;;;;;;;;5027337;28;20082;-64
2023/04/29 06:05:49;;;;;;;2.38;2.17;;;;;;;;;;5044517;28;20056;-64
2023/04/29 06:08:15;;;;;;;5.47;2.88;;;;;;;;;;5026938;28;20045;-64
2023/04/29 06:10:42;;;;;;;4.65;3.17;;;;;;;;;;5029977;28;20041;-65
2023/04/29 06:13:08;;;;;;;4.57;2.92;;;;;;;;;;5025630;28;20172;-64
2023/04/29 06:15:34;;;;;;;2.90;2.70;;;;;;;;;;5028254;28;20057;-65
2023/04/29 06:18:00;;;;;;;4.18;3.30;;;;;;;;;;5044304;28;20041;-65
2023/04/29 06:20:26;;;;;;;4.75;3.55;;;;;;;;;;5026018;28;20114;-64
2023/04/29 06:22:52;;;;;;;4.25;3.50;;;;;;;;;;5025919;28;20136;-64
2023/04/29 06:25:18;;;;;;;4.75;3.20;;;;;;;;;;5044259;28;20055;-64
2023/04/29 06:27:44;;;;;;;3.00;2.63;;;;;;;;;;5043867;28;20495;-64
2023/04/29 06:30:10;;;;;;;3.67;3.22;;;;;;;;;;5044813;28;20516;-64
2023/04/29 06:32:37;;;;;;;5.75;3.60;;;;;;;;;;5044190;28;20127;-64
2023/04/29 06:35:04;;;;;;;5.82;3.60;;;;;;;;;;5025161;28;20048;-65
2023/04/29 06:37:30;;;;;;;2.90;2.70;;;;;;;;;;5043418;28;20044;-65
2023/04/29 06:39:55;;;;;;;5.07;3.58;;;;;;;;;;5043089;28;20102;-65
2023/04/29 06:42:21;;;;;;;4.75;2.67;;;;;;;;;;5025980;28;20072;-64
2023/04/29 06:44:47;;;;;;;4.80;3.47;;;;;;;;;;5026210;28;20052;-65
2023/04/29 06:47:14;;;;;;;5.45;3.15;;;;;;;;;;5026335;28;20053;-64
2023/04/29 06:49:42;;;;;;;4.78;4.05;;;;;;;;;;5043447;28;20041;-64
2023/04/29 06:52:08;;;;;;;8.90;5.22;;;;;;;;;;5046149;28;20049;-65
2023/04/29 06:54:34;;;;;;;7.75;4.35;;;;;;;;;;5043708;28;20091;-65
2023/04/29 06:57:01;;;;;;;5.47;3.17;;;;;;;;;;5043307;28;20067;-64
2023/04/29 06:59:27;;;;;;;5.00;3.90;;;;;;;;;;5043929;28;20052;-64
2023/04/29 07:01:53;;;;;;;4.43;3.50;;;;;;;;;;5042661;28;20041;-65
2023/04/29 07:04:19;;;;;;;2.67;2.47;;;;;;;;;;5024885;28;20491;-64
2023/04/29 07:06:45;;;;;;;2.15;2.05;;;;;;;;;;5025768;28;20045;-64
2023/04/29 07:09:15;;;;;;;4.50;2.30;;;;;;;;;;5043272;28;20070;-64
2023/04/29 07:11:41;;;;;;;2.10;2.00;;;;;;;;;;5025505;28;20457;-64
2023/04/29 07:14:07;;;;;;;2.67;2.13;;;;;;;;;;5043423;28;20511;-65
2023/04/29 07:16:33;;;;;;;2.28;2.08;;;;;;;;;;5042681;28;20097;-65
2023/04/29 07:18:59;;;;;;;3.35;2.63;;;;;;;;;;5042952;28;20149;-64
2023/04/29 07:21:26;;;;;;;3.63;3.08;;;;;;;;;;5043471;28;20519;-65
2023/04/29 07:23:54;;;;;;;3.42;3.13;;;;;;;;;;5042406;28;20126;-64
2023/04/29 07:26:20;;;;;;;4.63;3.00;;;;;;;;;;5044125;28;20667;-65
2023/04/29 07:28:48;;;;;;;4.00;3.20;;;;;;;;;;5044484;28;20048;-64
2023/04/29 07:31:15;;;;;;;3.97;3.53;;;;;;;;;;5042758;28;20075;-65
2023/04/29 07:33:41;;;;;;;3.38;2.65;;;;;;;;;;5025484;28;20262;-64
2023/04/29 07:36:07;;;;;;;2.92;2.22;;;;;;;;;;5043409;28;20376;-64
2023/04/29 07:38:35;;;;;;;4.40;2.65;;;;;;;;;;5042675;28;20060;-65
2023/04/29 07:41:03;;;;;;;3.72;3.22;;;;;;;;;;5042779;28;20094;-65
2023/04/29 07:43:29;;;;;;;3.15;2.95;;;;;;;;;;5043381;28;20124;-65
2023/04/29 07:45:55;;;;;;;2.35;2.15;;;;;;;;;;5023773;28;20087;-64
2023/04/29 07:48:21;;;;;;;6.00;3.00;;;;;;;;;;5044899;28;20083;-65
2023/04/29 07:50:47;;;;;;;2.67;2.45;;;;;;;;;;5024420;28;20072;-65
2023/04/29 07:53:14;;;;;;;2.88;2.63;;;;;;;;;;5024389;28;20574;-65
2023/04/29 07:55:41;;;;;;;3.53;2.50;;;;;;;;;;5043202;28;20051;-64
2023/04/29 07:58:07;;;;;;;4.90;2.83;;;;;;;;;;5024413;28;20483;-64
2023/04/29 08:00:33;;;;;;;3.97;2.45;;;;;;;;;;5042715;28;20100;-65
2023/04/29 08:02:59;;;;;;;2.55;2.15;;;;;;;;;;5043049;28;20048;-65
2023/04/29 08:05:25;;;;;;;2.03;1.90;;;;;;;;;;5042363;28;20116;-65
2023/04/29 08:07:51;;;;;;;4.25;2.60;;;;;;;;;;5040936;28;20051;-65
2023/04/29 08:10:18;;;;;;;2.60;1.58;;;;;;;;;;5022606;28;20033;-63
2023/04/29 08:12:47;;;;;;;2.50;2.08;;;;;;;;;;5039124;28;20095;-65
2023/04/29 08:15:13;;;;;;;2.30;2.10;;;;;;;;;;5041659;28;20040;-65
2023/04/29 08:17:39;;;;;;;2.28;1.92;;;;;;;;;;5040026;28;20129;-65
2023/04/29 08:20:07;;;;;;;2.30;2.10;;;;;;;;;;5024600;28;20083;-65
2023/04/29 08:22:33;;;;;;;2.67;2.30;;;;;;;;;;5042141;28;21209;-65
2023/04/29 08:25:01;;;;;;;2.03;1.70;;;;;;;;;;5042220;28;20131;-66
2023/04/29 08:27:27;;;;;;;4.55;2.40;;;;;;;;;;5041346;28;20048;-66
2023/04/29 08:29:54;;;;;;;3.88;2.53;;;;;;;;;;5024238;28;20063;-66
2023/04/29 08:32:21;;;;;;;3.47;2.05;;;;;;;;;;5042374;28;20048;-66
2023/04/29 08:34:47;;;;;;;1.98;1.75;;;;;;;;;;5042927;28;20593;-65
2023/04/29 08:37:14;;;;;;;2.17;1.50;;;;;;;;;;5040546;28;20707;-67
2023/04/29 08:39:42;;;;;;;2.03;1.80;;;;;;;;;;5025527;28;20555;-67
2023/04/29 08:42:08;;;;;;;3.08;1.80;;;;;;;;;;5043025;28;20088;-66
2023/04/29 08:44:35;;;;;;;1.70;1.55;;;;;;;;;;5026300;28;20045;-66
2023/04/29 08:47:02;;;;;;;3.90;2.20;;;;;;;;;;5026081;28;20130;-66
2023/04/29 08:49:28;;;;;;;2.45;1.52;;;;;;;;;;5024226;28;20049;-65
2023/04/29 08:51:54;;;;;;;3.67;2.35;;;;;;;;;;5025688;28;20037;-65
2023/04/29 08:54:20;;;;;;;4.38;2.42;;;;;;;;;;5026355;28;20049;-65
2023/04/29 08:56:47;;;;;;;2.25;1.80;;;;;;;;;;5044099;28;20099;-65
2023/04/29 08:59:16;;;;;;;1.60;1.50;;;;;;;;;;5025678;28;20480;-65
2023/04/29 09:01:43;;;;;;;5.13;2.17;;;;;;;;;;5027393;28;20060;-65
2023/04/29 09:04:21;;;;;;;6.07;3.25;;;;;;;;;;5029483;28;20076;-65
2023/04/29 09:06:47;;;;;;;3.33;2.22;;;;;;;;;;5029437;28;20395;-65
2023/04/29 09:09:14;;;;;;;3.20;2.03;;;;;;;;;;5046578;28;20044;-65
2023/04/29 09:11:40;;;;;;;3.22;2.25;;;;;;;;;;5047287;28;20564;-65
2023/04/29 09:14:08;;;;;;;3.38;2.15;;;;;;;;;;5028992;28;20507;-65
2023/04/29 09:16:37;;;;;;;3.10;2.42;;;;;;;;;;5029157;28;20420;-66
2023/04/29 09:19:03;;;;;;;5.97;2.70;;;;;;;;;;5029179;28;20518;-64
2023/04/29 09:21:31;;;;;;;3.22;2.20;;;;;;;;;;5047775;28;20120;-65
2023/04/29 09:24:01;;;;;;;5.35;2.90;;;;;;;;;;5028550;28;20053;-66
2023/04/29 09:26:27;;;;;;;2.85;2.30;;;;;;;;;;5029903;28;20041;-64
2023/04/29 09:29:05;;;;;;;3.08;2.50;;;;;;;;;;5046820;28;20557;-66
2023/04/29 09:31:31;;;;;;;2.25;2.00;;;;;;;;;;5046827;28;20131;-64
2023/04/29 09:33:57;;;;;;;3.13;2.83;;;;;;;;;;5046928;28;20514;-65
2023/04/29 09:36:45;;;;;;;3.03;2.47;;;;;;;;;;5027890;28;20049;-65
2023/04/29 09:39:16;;;;;;;3.05;2.40;;;;;;;;;;5046447;28;20131;-66
2023/04/29 09:42:02;;;;;;;2.85;2.65;;;;;;;;;;5045789;28;20628;-66
2023/04/29 09:44:29;;;;;;;4.53;3.00;;;;;;;;;;5020805;28;20041;-66
2023/04/29 09:47:01;;;;;;;3.15;2.72;;;;;;;;;;5046554;28;20053;-67
2023/04/29 09:49:28;;;;;;;4.63;2.38;;;;;;;;;;5047538;28;20048;-67
2023/04/29 09:52:19;;;;;;;8.63;3.70;;;;;;;;;;5028301;28;20053;-67
2023/04/29 09:54:45;;;;;;;6.03;3.30;;;;;;;;;;5029201;28;20060;-67
2023/04/29 09:57:15;;;;;;;3.10;2.67;;;;;;;;;;5047025;28;20534;-66
2023/04/29 09:59:41;;;;;;;3.08;2.60;;;;;;;;;;5046628;28;20077;-67
2023/04/29 10:02:17;;;;;;;4.00;2.67;;;;;;;;;;5047220;28;20040;-66
2023/04/29 10:04:47;;;;;;;4.38;3.22;;;;;;;;;;5046539;28;20511;-67
2023/04/29 10:07:17;;;;;;;6.55;3.58;;;;;;;;;;5047521;28;20037;-66
2023/04/29 10:09:45;;;;;;;6.78;3.58;;;;;;;;;;5029695;28;20060;-66
2023/04/29 10:12:14;;;;;;;3.08;2.47;;;;;;;;;;5028523;28;20080;-66
2023/04/29 10:14:43;;;;;;;2.70;2.20;;;;;;;;;;5046055;28;20053;-67
2023/04/29 10:17:18;;;;;;;3.75;2.63;;;;;;;;;;5045398;28;20146;-66
2023/04/29 10:19:50;;;;;;;2.50;2.30;;;;;;;;;;5027187;28;20052;-66
2023/04/29 10:22:32;;;;;;;2.28;2.00;;;;;;;;;;5044797;28;20052;-68
2023/04/29 10:24:59;;;;;;;2.17;1.60;;;;;;;;;;5046403;28;20041;-67
2023/04/29 10:27:25;;;;;;;1.90;1.80;;;;;;;;;;5046309;28;20059;-67
2023/04/29 10:29:52;;;;;;;3.25;1.60;;;;;;;;;;5046027;28;20132;-66
2023/04/29 10:32:19;;;;;;;3.28;1.85;;;;;;;;;;5047301;28;20053;-66
2023/04/29 10:34:45;;;;;;;2.13;1.60;;;;;;;;;;5027997;28;20053;-66
2023/04/29 10:37:11;;;;;;;1.85;1.38;;;;;;;;;;5028715;28;20041;-66
2023/04/29 10:39:47;;;;;;;2.97;1.50;;;;;;;;;;5046342;28;20087;-66
2023/04/29 10:42:21;;;;;;;3.05;1.60;;;;;;;;;;5034438;28;20793;-66
2023/04/29 10:45:06;;;;;;;6.18;2.05;;;;;;;;;;5053103;28;20609;-66
2023/04/29 10:47:32;;;;;;;1.77;1.30;;;;;;;;;;5021078;28;20056;-66
2023/04/29 10:50:03;;;;;;;1.85;1.27;;;;;;;;;;5026583;28;20052;-66
2023/04/29 10:52:29;;;;;;;3.67;1.77;;;;;;;;;;5027124;28;20051;-66
2023/04/29 10:55:06;;;;;;;2.67;1.40;;;;;;;;;;5041373;28;20045;-67
2023/04/29 10:57:32;;;;;;;1.77;1.20;;;;;;;;;;5046681;28;20048;-67
2023/04/29 11:00:01;;;;;;;2.33;1.25;;;;;;;;;;5052955;28;20489;-67
2023/04/29 11:02:27;;;;;;;2.47;1.70;;;;;;;;;;5050214;28;20040;-66
2023/04/29 11:05:09;;;;;;;1.88;1.33;;;;;;;;;;5047788;28;20063;-66
2023/04/29 11:07:35;;;;;;;2.03;1.20;;;;;;;;;;5034383;28;20175;-66
2023/04/29 11:10:02;;;;;;;2.05;1.40;;;;;;;;;;5038260;28;20041;-65
2023/04/29 11:12:28;;;;;;;1.63;1.10;;;;;;;;;;5022558;28;20188;-65
2023/04/29 11:15:00;;;;;;;2.22;1.17;;;;;;;;;;5020848;28;20102;-65
2023/04/29 11:17:26;;;;;;;1.98;1.42;;;;;;;;;;5018159;28;20127;-65
2023/04/29 11:19:54;;;;;;;1.27;1.17;;;;;;;;;;5018701;28;20041;-65
2023/04/29 11:22:23;;;;;;;3.17;1.75;;;;;;;;;;5023508;28;20054;-65
2023/04/29 11:25:10;;;;;;;2.88;1.63;;;;;;;;;;5023133;28;20056;-64
2023/04/29 11:27:41;;;;;;;3.17;1.85;;;;;;;;;;5019022;28;20601;-64
2023/04/29 11:30:08;;;;;;;3.07;2.00;;;;;;;;;;5038014;28;20123;-65
2023/04/29 11:32:35;;;;;;;1.55;1.45;;;;;;;;;;5021786;28;20100;-65
2023/04/29 11:35:10;;;;;;;1.30;1.20;;;;;;;;;;5041747;28;20071;-64
2023/04/29 11:37:37;;;;;;;1.35;1.10;;;;;;;;;;5025608;28;20056;-65
2023/04/29 11:40:03;;;;;;;1.10;1.00;;;;;;;;;;5042394;28;20064;-64
2023/04/29 11:42:29;;;;;;;1.10;1.00;;;;;;;;;;5017712;28;20380;-65
2023/04/29 11:44:55;;;;;;;1.58;0.85;;;;;;;;;;5019752;28;20067;-67
2023/04/29 11:47:25;;;;;;;0.77;0.77;;;;;;;;;;5047918;28;20042;-68
2023/04/29 11:49:52;;;;;;;1.15;0.88;;;;;;;;;;5032001;28;20060;-66
2023/04/29 11:52:18;;;;;;;1.13;1.02;;;;;;;;;;5026370;28;20596;-64
2023/04/29 11:54:45;;;;;;;1.05;0.93;;;;;;;;;;5044126;28;20037;-69
2023/04/29 11:57:11;;;;;;;1.10;1.00;;;;;;;;;;5017249;28;20184;-67
2023/04/29 11:59:37;;;;;;;1.00;0.80;;;;;;;;;;5043071;28;20045;-68
2023/04/29 12:02:03;;;;;;;1.92;0.82;;;;;;;;;;5023534;28;20055;-68
2023/04/29 12:04:29;;;;;;;1.52;1.15;;;;;;;;;;5024419;28;20418;-68
2023/04/29 12:06:57;;;;;;;1.13;0.80;;;;;;;;;;5042092;28;20505;-68
2023/04/29 12:09:23;;;;;;;2.05;1.15;;;;;;;;;;5043069;28;20080;-68
2023/04/29 12:11:49;;;;;;;0.93;0.80;;;;;;;;;;5026143;28;20056;-67
2023/04/29 12:14:16;;;;;;;1.23;0.85;;;;;;;;;;5025373;28;20078;-68
2023/04/29 12:16:42;;;;;;;0.63;0.60;;;;;;;;;;5043263;28;20044;-69
2023/04/29 12:19:09;;;;;;;0.63;0.63;;;;;;;;;;5038871;28;20041;-68
2023/04/29 12:21:35;;;;;;;1.17;0.90;;;;;;;;;;5041409;28;20055;-68
2023/04/29 12:24:02;;;;;;;1.17;0.95;;;;;;;;;;5042741;28;20052;-68
2023/04/29 12:26:30;;;;;;;1.10;1.00;;;;;;;;;;5041331;28;20128;-69
2023/04/29 12:28:58;;;;;;;2.50;1.17;;;;;;;;;;5040780;28;20037;-68
2023/04/29 12:31:25;;;;;;;1.92;0.70;;;;;;;;;;5022394;28;20049;-68
2023/04/29 12:33:54;;;;;;;1.30;0.85;;;;;;;;;;5041300;28;20053;-68
2023/04/29 12:36:20;;;;;;;1.70;0.80;;;;;;;;;;5045080;28;20084;-68
2023/04/29 12:38:48;;;;;;;3.38;0.95;;;;;;;;;;5038398;28;20052;-68
2023/04/29 12:41:16;;;;;;;1.02;0.80;;;;;;;;;;5036579;28;20041;-67
2023/04/29 12:43:42;;;;;;;1.17;1.08;;;;;;;;;;5025697;28;20052;-67
2023/04/29 12:46:11;;;;;;;0.50;0.50;;;;;;;;;;5038428;28;20057;-67
2023/04/29 12:48:37;;;;;;;0.90;0.85;;;;;;;;;;5044886;28;20041;-68
2023/04/29 12:51:04;;;;;;;2.35;0.90;;;;;;;;;;5019096;28;20061;-67
2023/04/29 12:53:31;;;;;;;1.67;1.20;;;;;;;;;;5046220;28;20053;-67
2023/04/29 12:55:57;;;;;;;2.70;1.20;;;;;;;;;;5041127;28;20120;-67
2023/04/29 12:58:23;;;;;;;1.10;0.95;;;;;;;;;;5041752;28;20049;-68
2023/04/29 13:00:50;;;;;;;0.88;0.88;;;;;;;;;;5041158;28;20739;-69
2023/04/29 13:03:16;;;;;;;0.85;0.82;;;;;;;;;;5040270;28;20043;-68
2023/04/29 13:05:42;;;;;;;1.35;1.13;;;;;;;;;;5041833;28;20460;-67
2023/04/29 13:08:08;;;;;;;3.33;1.50;;;;;;;;;;5040650;28;20044;-67
2023/04/29 13:10:34;;;;;;;1.45;1.30;;;;;;;;;;5040297;28;20043;-66
2023/04/29 13:13:01;;;;;;;2.55;1.60;;;;;;;;;;5022560;28;20057;-67
2023/04/29 13:15:27;;;;;;;1.83;1.73;;;;;;;;;;5043164;28;20050;-67
2023/04/29 13:17:54;;;;;;;3.67;1.75;;;;;;;;;;5022722;28;20710;-68
2023/04/29 13:20:20;;;;;;;2.22;1.85;;;;;;;;;;5041275;28;20059;-68
2023/04/29 13:22:47;;;;;;;4.43;2.03;;;;;;;;;;5020288;28;20040;-68
2023/04/29 13:25:14;;;;;;;4.15;2.25;;;;;;;;;;5043973;28;20463;-68
2023/04/29 13:27:40;;;;;;;2.75;2.08;;;;;;;;;;5042170;28;20048;-67
2023/04/29 13:30:07;;;;;;;3.35;2.63;;;;;;;;;;5045071;28;20052;-68
2023/04/29 13:32:33;;;;;;;2.53;2.30;;;;;;;;;;5042056;28;20566;-68
2023/04/29 13:34:59;;;;;;;3.65;2.65;;;;;;;;;;5021219;28;20435;-68
2023/04/29 13:37:25;;;;;;;3.03;2.60;;;;;;;;;;5039976;28;20041;-68
2023/04/29 13:39:51;;;;;;;5.45;3.63;;;;;;;;;;5040213;28;20042;-68
2023/04/29 13:42:17;;;;;;;3.60;3.28;;;;;;;;;;5028184;28;20133;-67
2023/04/29 13:44:44;;;;;;;2.90;2.60;;;;;;;;;;5043533;28;20056;-68
2023/04/29 13:47:13;;;;;;;4.70;3.80;;;;;;;;;;5026387;28;20131;-68
2023/04/29 13:49:45;;;;;;;6.68;3.88;;;;;;;;;;5038787;28;20106;-68
2023/04/29 13:52:12;;;;;;;3.72;2.97;;;;;;;;;;5026411;28;20071;-68
2023/04/29 13:54:39;;;;;;;4.15;3.17;;;;;;;;;;5043335;28;20077;-68
2023/04/29 13:57:05;;;;;;;3.78;3.40;;;;;;;;;;5020553;28;20134;-66
2023/04/29 13:59:32;;;;;;;4.18;2.90;;;;;;;;;;5018393;28;20049;-67
2023/04/29 14:01:58;;;;;;;2.75;2.30;;;;;;;;;;5037522;28;20048;-67
2023/04/29 14:04:24;;;;;;;3.00;2.80;;;;;;;;;;5042390;28;20182;-67
2023/04/29 14:06:51;;;;;;;3.13;2.78;;;;;;;;;;5045897;28;20102;-67
2023/04/29 14:09:18;;;;;;;3.60;2.85;;;;;;;;;;5027814;28;20483;-67
2023/04/29 14:11:44;;;;;;;3.30;2.50;;;;;;;;;;5044654;28;20048;-67
2023/04/29 14:14:10;;;;;;;2.95;2.20;;;;;;;;;;5027020;28;20053;-67
2023/04/29 14:16:36;;;;;;;2.95;2.50;;;;;;;;;;5045362;28;20095;-67
2023/04/29 14:19:03;;;;;;;4.13;2.33;;;;;;;;;;5025992;28;20098;-67
2023/04/29 14:21:30;;;;;;;1.98;1.77;;;;;;;;;;5045510;28;20048;-66
2023/04/29 14:23:56;;;;;;;3.78;1.50;;;;;;;;;;5026787;28;20131;-67
2023/04/29 14:26:22;;;;;;;2.17;1.92;;;;;;;;;;5042024;28;20432;-67
2023/04/29 14:28:56;;;;;;;2.17;1.98;;;;;;;;;;5031712;28;20075;-67
2023/04/29 14:31:22;;;;;;;2.78;2.22;;;;;;;;;;5037362;28;20044;-67
2023/04/29 14:33:49;;;;;;;3.47;2.20;;;;;;;;;;5052443;28;20427;-67
2023/04/29 14:36:16;;;;;;;3.22;1.77;;;;;;;;;;5045036;28;20080;-67
2023/04/29 14:38:42;;;;;;;2.38;2.10;;;;;;;;;;5041545;28;20087;-63
2023/04/29 14:41:08;;;;;;;2.78;2.20;;;;;;;;;;5026277;28;20073;-67
2023/04/29 14:43:35;;;;;;;2.28;1.80;;;;;;;;;;5046362;28;20394;-67